N434AB KMSO-KMSO
Flight info
| Callsign | N434AB |
|---|---|
| Flight time | 0h 43m |
| Altitude | 4500 |
| Route | PATTERN |
| Aircraft | P28A/L-VGD/A |
Departure
| Time | 2026-04-30 19:00 |
|---|---|
| Airport | Missoula Montana Airport (KMSO) |
Arrival
| Time | 2026-04-30 19:44 |
|---|---|
| Airport | Missoula Montana Airport (KMSO) |
| Time | Latitude | Longitude | Altitude | Speed | Heading |
|---|---|---|---|---|---|
| 2026-04-30 18:49 | 46.91467 | -114.07931 | 3201 ft | 0 kts | 89° |
| 2026-04-30 18:56 | 46.91477 | -114.07911 | 3201 ft | 7 kts | 7° |
| 2026-04-30 18:56 | 46.91530 | -114.07922 | 3201 ft | 7 kts | 307° |
| 2026-04-30 18:56 | 46.91533 | -114.08012 | 3201 ft | 11 kts | 271° |
| 2026-04-30 18:57 | 46.91492 | -114.08227 | 3201 ft | 8 kts | 219° |
| 2026-04-30 18:57 | 46.91446 | -114.08285 | 3200 ft | 10 kts | 222° |
| 2026-04-30 18:57 | 46.91391 | -114.08354 | 3200 ft | 11 kts | 218° |
| 2026-04-30 18:58 | 46.91318 | -114.08443 | 3199 ft | 0 kts | 220° |
| 2026-04-30 19:00 | 46.91536 | -114.09040 | 3201 ft | 75 kts | 310° |
| 2026-04-30 19:00 | 46.91910 | -114.09685 | 3374 ft | 89 kts | 309° |
| 2026-04-30 19:00 | 46.92761 | -114.11128 | 3913 ft | 95 kts | 305° |
| 2026-04-30 19:01 | 46.92104 | -114.12744 | 4195 ft | 113 kts | 220° |
| 2026-04-30 19:01 | 46.91342 | -114.12886 | 4221 ft | 119 kts | 151° |
| 2026-04-30 19:02 | 46.90303 | -114.11286 | 4184 ft | 102 kts | 128° |
| 2026-04-30 19:02 | 46.89411 | -114.09764 | 4177 ft | 92 kts | 127° |
| 2026-04-30 19:03 | 46.89020 | -114.08291 | 4107 ft | 84 kts | 40° |
| 2026-04-30 19:03 | 46.89924 | -114.07326 | 3767 ft | 78 kts | 37° |
| 2026-04-30 19:04 | 46.90861 | -114.07891 | 3215 ft | 79 kts | 311° |
| 2026-04-30 19:04 | 46.91536 | -114.09039 | 3301 ft | 82 kts | 311° |
| 2026-04-30 19:05 | 46.92324 | -114.10326 | 3823 ft | 86 kts | 313° |
| 2026-04-30 19:05 | 46.92892 | -114.11774 | 4163 ft | 100 kts | 244° |
| 2026-04-30 19:06 | 46.91748 | -114.12999 | 4183 ft | 104 kts | 182° |
| 2026-04-30 19:06 | 46.91140 | -114.12509 | 4168 ft | 98 kts | 131° |
| 2026-04-30 19:06 | 46.90304 | -114.11151 | 4251 ft | 86 kts | 129° |
| 2026-04-30 19:07 | 46.89487 | -114.09861 | 4237 ft | 87 kts | 131° |
| 2026-04-30 19:07 | 46.89074 | -114.09245 | 4261 ft | 83 kts | 131° |
| 2026-04-30 19:08 | 46.89112 | -114.07934 | 4159 ft | 79 kts | 38° |
| 2026-04-30 19:08 | 46.89992 | -114.07063 | 3773 ft | 80 kts | 13° |
| 2026-04-30 19:08 | 46.90534 | -114.07313 | 3384 ft | 91 kts | 312° |
| 2026-04-30 19:09 | 46.91241 | -114.08541 | 3198 ft | 67 kts | 310° |
| 2026-04-30 19:09 | 46.91607 | -114.09144 | 3255 ft | 88 kts | 309° |
| 2026-04-30 19:09 | 46.92016 | -114.09845 | 3414 ft | 92 kts | 310° |
| 2026-04-30 19:10 | 46.92969 | -114.11358 | 3857 ft | 103 kts | 333° |
| 2026-04-30 19:10 | 46.94384 | -114.11025 | 4295 ft | 104 kts | 15° |
| 2026-04-30 19:11 | 46.95063 | -114.10736 | 4589 ft | 100 kts | 15° |
| 2026-04-30 19:11 | 46.96357 | -114.10244 | 5278 ft | 92 kts | 16° |
| 2026-04-30 19:11 | 46.96960 | -114.09973 | 5585 ft | 91 kts | 18° |
| 2026-04-30 19:12 | 46.97595 | -114.09774 | 5816 ft | 96 kts | 15° |
| 2026-04-30 19:12 | 46.98260 | -114.09518 | 5984 ft | 107 kts | 17° |
| 2026-04-30 19:12 | 46.99020 | -114.09190 | 6064 ft | 123 kts | 18° |
| 2026-04-30 19:13 | 47.00719 | -114.08585 | 6182 ft | 124 kts | 10° |
| 2026-04-30 19:13 | 47.02445 | -114.08180 | 6209 ft | 129 kts | 11° |
| 2026-04-30 19:13 | 47.03337 | -114.07964 | 6186 ft | 132 kts | 10° |
| 2026-04-30 19:14 | 47.04247 | -114.07730 | 6086 ft | 133 kts | 9° |
| 2026-04-30 19:14 | 47.05164 | -114.07462 | 6028 ft | 135 kts | 10° |
| 2026-04-30 19:14 | 47.06073 | -114.07142 | 6018 ft | 134 kts | 14° |
| 2026-04-30 19:14 | 47.06977 | -114.06786 | 5972 ft | 134 kts | 15° |
| 2026-04-30 19:15 | 47.07872 | -114.06420 | 5953 ft | 134 kts | 13° |
| 2026-04-30 19:15 | 47.09679 | -114.05919 | 5925 ft | 132 kts | 5° |
| 2026-04-30 19:15 | 47.10586 | -114.05802 | 5936 ft | 132 kts | 1° |
| 2026-04-30 19:16 | 47.11413 | -114.06144 | 5982 ft | 124 kts | 315° |
| 2026-04-30 19:16 | 47.11936 | -114.07040 | 5966 ft | 107 kts | 312° |
| 2026-04-30 19:16 | 47.12855 | -114.08659 | 5989 ft | 103 kts | 315° |
| 2026-04-30 19:17 | 47.13519 | -114.08746 | 5993 ft | 106 kts | 34° |
| 2026-04-30 19:17 | 47.14586 | -114.07160 | 5974 ft | 111 kts | 25° |
| 2026-04-30 19:17 | 47.15261 | -114.07391 | 6000 ft | 105 kts | 306° |
| 2026-04-30 19:18 | 47.14752 | -114.08832 | 5952 ft | 109 kts | 219° |
| 2026-04-30 19:18 | 47.14332 | -114.09983 | 5960 ft | 107 kts | 295° |
| 2026-04-30 19:18 | 47.14857 | -114.10780 | 5932 ft | 109 kts | 317° |
| 2026-04-30 19:19 | 47.15368 | -114.11558 | 6074 ft | 104 kts | 309° |
| 2026-04-30 19:19 | 47.16001 | -114.11912 | 6056 ft | 106 kts | 15° |
| 2026-04-30 19:19 | 47.17179 | -114.10501 | 6008 ft | 112 kts | 40° |
| 2026-04-30 19:20 | 47.17720 | -114.09692 | 6029 ft | 110 kts | 62° |
| 2026-04-30 19:20 | 47.17547 | -114.08680 | 6012 ft | 114 kts | 145° |
| 2026-04-30 19:20 | 47.16902 | -114.09864 | 6002 ft | 107 kts | 320° |
| 2026-04-30 19:21 | 47.17588 | -114.09742 | 5960 ft | 113 kts | 41° |
| 2026-04-30 19:21 | 47.18691 | -114.08124 | 5965 ft | 112 kts | 26° |
| 2026-04-30 19:22 | 47.20159 | -114.08260 | 5986 ft | 111 kts | 323° |
| 2026-04-30 19:22 | 47.21280 | -114.10906 | 6044 ft | 111 kts | 243° |
| 2026-04-30 19:23 | 47.20876 | -114.13548 | 5997 ft | 113 kts | 312° |
| 2026-04-30 19:24 | 47.22233 | -114.14399 | 6033 ft | 110 kts | 3° |
| 2026-04-30 19:24 | 47.22962 | -114.14077 | 6053 ft | 110 kts | 28° |
| 2026-04-30 19:24 | 47.24064 | -114.12580 | 6172 ft | 105 kts | 47° |
| 2026-04-30 19:25 | 47.25025 | -114.09444 | 6045 ft | 121 kts | 73° |
| 2026-04-30 19:26 | 47.25833 | -114.07193 | 5798 ft | 129 kts | 46° |
| 2026-04-30 19:26 | 47.27049 | -114.05470 | 5595 ft | 116 kts | 39° |
| 2026-04-30 19:26 | 47.27659 | -114.04779 | 5409 ft | 104 kts | 31° |
| 2026-04-30 19:27 | 47.28828 | -114.03825 | 5038 ft | 95 kts | 15° |
| 2026-04-30 19:27 | 47.30079 | -114.03574 | 4547 ft | 89 kts | 0° |
| 2026-04-30 19:28 | 47.30680 | -114.03598 | 4345 ft | 81 kts | 351° |
| 2026-04-30 19:28 | 47.31463 | -114.04285 | 3941 ft | 82 kts | 311° |
| 2026-04-30 19:29 | 47.31948 | -114.05765 | 3528 ft | 76 kts | 290° |
| 2026-04-30 19:29 | 47.32112 | -114.06459 | 3394 ft | 69 kts | 291° |
| 2026-04-30 19:30 | 47.32485 | -114.08032 | 3122 ft | 7 kts | 289° |
| 2026-04-30 19:30 | 47.32608 | -114.08565 | 3157 ft | 70 kts | 289° |
| 2026-04-30 19:31 | 47.32589 | -114.10108 | 3485 ft | 102 kts | 213° |
| 2026-04-30 19:31 | 47.31873 | -114.10417 | 3678 ft | 109 kts | 196° |
| 2026-04-30 19:31 | 47.30379 | -114.10686 | 4326 ft | 104 kts | 181° |
| 2026-04-30 19:32 | 47.29663 | -114.10692 | 4723 ft | 102 kts | 182° |
| 2026-04-30 19:32 | 47.28981 | -114.10743 | 5074 ft | 95 kts | 186° |
| 2026-04-30 19:32 | 47.28336 | -114.10833 | 5259 ft | 96 kts | 189° |
| 2026-04-30 19:32 | 47.27650 | -114.10911 | 5387 ft | 101 kts | 177° |
| 2026-04-30 19:33 | 47.26948 | -114.10760 | 5530 ft | 105 kts | 170° |
| 2026-04-30 19:33 | 47.26210 | -114.10551 | 5633 ft | 110 kts | 170° |
| 2026-04-30 19:33 | 47.25449 | -114.10340 | 5758 ft | 112 kts | 170° |
| 2026-04-30 19:33 | 47.24664 | -114.10151 | 5801 ft | 120 kts | 173° |
| 2026-04-30 19:34 | 47.23818 | -114.10030 | 5843 ft | 122 kts | 176° |
| 2026-04-30 19:34 | 47.22950 | -114.09911 | 5845 ft | 129 kts | 175° |
| 2026-04-30 19:34 | 47.21118 | -114.09578 | 5848 ft | 131 kts | 172° |
| 2026-04-30 19:35 | 47.20223 | -114.09379 | 5893 ft | 128 kts | 172° |
| 2026-04-30 19:35 | 47.19348 | -114.09212 | 5955 ft | 126 kts | 174° |
| 2026-04-30 19:35 | 47.18475 | -114.09088 | 5994 ft | 126 kts | 176° |
| 2026-04-30 19:35 | 47.17599 | -114.09002 | 6050 ft | 126 kts | 177° |
| 2026-04-30 19:36 | 47.16717 | -114.08935 | 6060 ft | 128 kts | 178° |
| 2026-04-30 19:36 | 47.15823 | -114.08849 | 6063 ft | 130 kts | 176° |
| 2026-04-30 19:36 | 47.14085 | -114.08594 | 6192 ft | 124 kts | 176° |
| 2026-04-30 19:37 | 47.13221 | -114.08520 | 6248 ft | 125 kts | 177° |
| 2026-04-30 19:37 | 47.12369 | -114.08476 | 6347 ft | 120 kts | 180° |
| 2026-04-30 19:37 | 47.11573 | -114.08451 | 6500 ft | 112 kts | 180° |
| 2026-04-30 19:37 | 47.10773 | -114.08469 | 6548 ft | 117 kts | 182° |
| 2026-04-30 19:38 | 47.09935 | -114.08510 | 6482 ft | 118 kts | 186° |
| 2026-04-30 19:38 | 47.09151 | -114.08625 | 6457 ft | 111 kts | 187° |
| 2026-04-30 19:38 | 47.08390 | -114.08680 | 6423 ft | 113 kts | 181° |
| 2026-04-30 19:38 | 47.07559 | -114.08625 | 6310 ft | 129 kts | 177° |
| 2026-04-30 19:39 | 47.06669 | -114.08507 | 6285 ft | 131 kts | 174° |
| 2026-04-30 19:39 | 47.05758 | -114.08347 | 6260 ft | 132 kts | 174° |
| 2026-04-30 19:39 | 47.04833 | -114.08209 | 6163 ft | 136 kts | 178° |
| 2026-04-30 19:39 | 47.03876 | -114.08153 | 6070 ft | 137 kts | 179° |
| 2026-04-30 19:40 | 47.02913 | -114.08195 | 6023 ft | 141 kts | 183° |
| 2026-04-30 19:40 | 47.01920 | -114.08329 | 5872 ft | 139 kts | 185° |
| 2026-04-30 19:40 | 47.00977 | -114.08427 | 5671 ft | 134 kts | 180° |
| 2026-04-30 19:40 | 47.00051 | -114.08459 | 5450 ft | 132 kts | 181° |
| 2026-04-30 19:41 | 46.99129 | -114.08499 | 5199 ft | 132 kts | 182° |
| 2026-04-30 19:41 | 46.98205 | -114.08558 | 4935 ft | 133 kts | 183° |
| 2026-04-30 19:41 | 46.97283 | -114.08654 | 4679 ft | 133 kts | 186° |
| 2026-04-30 19:41 | 46.96362 | -114.08737 | 4497 ft | 131 kts | 184° |
| 2026-04-30 19:42 | 46.95481 | -114.08767 | 4321 ft | 119 kts | 182° |
| 2026-04-30 19:42 | 46.94713 | -114.08737 | 4178 ft | 107 kts | 178° |
| 2026-04-30 19:42 | 46.93974 | -114.08645 | 4040 ft | 103 kts | 174° |
| 2026-04-30 19:42 | 46.93294 | -114.08385 | 3914 ft | 104 kts | 147° |
| 2026-04-30 19:43 | 46.92793 | -114.07715 | 3840 ft | 91 kts | 135° |
| 2026-04-30 19:43 | 46.92333 | -114.07104 | 3845 ft | 87 kts | 137° |
| 2026-04-30 19:43 | 46.91890 | -114.06536 | 3848 ft | 83 kts | 137° |
| 2026-04-30 19:44 | 46.90895 | -114.06787 | 3487 ft | 85 kts | 217° |
| 2026-04-30 19:44 | 46.90649 | -114.07437 | 3279 ft | 73 kts | 282° |
| 2026-04-30 19:44 | 46.90917 | -114.07981 | 3202 ft | 49 kts | 311° |
| 2026-04-30 19:44 | 46.91084 | -114.08265 | 3200 ft | 34 kts | 311° |
| 2026-04-30 19:45 | 46.91211 | -114.08474 | 3198 ft | 17 kts | 319° |
| 2026-04-30 19:45 | 46.91287 | -114.08479 | 3198 ft | 10 kts | 37° |
| 2026-04-30 19:45 | 46.91352 | -114.08400 | 3200 ft | 16 kts | 39° |
| 2026-04-30 19:45 | 46.91457 | -114.08272 | 3200 ft | 23 kts | 43° |
| 2026-04-30 19:46 | 46.91532 | -114.08142 | 3201 ft | 15 kts | 89° |
| 2026-04-30 19:46 | 46.91532 | -114.08004 | 3201 ft | 10 kts | 97° |
| 2026-04-30 19:46 | 46.91480 | -114.07983 | 3201 ft | 8 kts | 179° |
| 2026-04-30 19:46 | 46.91450 | -114.07981 | 3201 ft | 4 kts | 174° |
| 2026-04-30 19:47 | 46.91440 | -114.07937 | 3201 ft | 1 kts | 88° |
| 2026-04-30 19:47 | 46.91440 | -114.07934 | 3201 ft | 0 kts | 88° |